createdAt,value
2023-05-11T00:00:32.680Z,11.25
2023-05-11T00:02:05.927Z,11.27
2023-05-11T00:03:38.401Z,11.30
2023-05-11T00:05:10.111Z,11.22
2023-05-11T00:06:41.872Z,11.21
2023-05-11T00:08:15.575Z,11.25
2023-05-11T00:09:48.465Z,11.24
2023-05-11T00:11:20.151Z,11.30
2023-05-11T00:12:51.823Z,11.31
2023-05-11T00:14:23.589Z,11.31
2023-05-11T00:15:55.317Z,11.30
2023-05-11T00:17:26.960Z,11.35
2023-05-11T00:18:58.842Z,11.35
2023-05-11T00:20:30.579Z,11.28
2023-05-11T00:22:02.245Z,11.12
2023-05-11T00:23:33.835Z,10.99
2023-05-11T00:25:06.102Z,11.03
2023-05-11T00:26:37.748Z,11.07
2023-05-11T00:28:10.706Z,11.09
2023-05-11T00:29:42.636Z,11.11
2023-05-11T00:31:15.030Z,10.99
2023-05-11T00:32:46.749Z,11.04
2023-05-11T00:34:18.449Z,11.06
2023-05-11T00:35:50.997Z,11.11
2023-05-11T00:37:22.617Z,11.16
2023-05-11T00:38:54.212Z,11.10
2023-05-11T00:40:26.124Z,11.14
2023-05-11T00:41:57.743Z,11.15
2023-05-11T00:43:29.337Z,11.05
2023-05-11T00:45:00.941Z,11.10
2023-05-11T00:46:33.374Z,11.12
2023-05-11T00:48:05.422Z,11.10
2023-05-11T00:49:37.151Z,11.10
2023-05-11T00:51:09.079Z,11.10
2023-05-11T00:52:42.122Z,11.11
2023-05-11T00:54:15.747Z,11.05
2023-05-11T00:55:47.517Z,11.05
2023-05-11T00:57:19.254Z,11.05
2023-05-11T00:58:51.910Z,11.02
2023-05-11T01:00:23.573Z,11.10
2023-05-11T01:01:56.583Z,11.05
2023-05-11T01:03:28.426Z,11.06
2023-05-11T01:05:01.622Z,11.07
2023-05-11T01:06:49.854Z,11.08
2023-05-11T01:08:27.375Z,11.04
2023-05-11T01:10:17.824Z,11.12
2023-05-11T01:11:54.611Z,11.18
2023-05-11T01:13:31.661Z,11.05
2023-05-11T01:15:10.791Z,11.00
2023-05-11T01:16:47.345Z,10.98
2023-05-11T01:18:37.517Z,10.96
2023-05-11T01:20:20.240Z,11.03
2023-05-11T01:21:52.138Z,11.03
2023-05-11T01:23:51.138Z,11.06
2023-05-11T01:25:32.487Z,11.08
2023-05-11T01:27:13.709Z,11.09
2023-05-11T01:28:48.340Z,11.08
2023-05-11T01:30:25.546Z,11.08
2023-05-11T01:31:59.373Z,11.12
2023-05-11T01:33:35.320Z,11.07
2023-05-11T01:35:11.320Z,11.07
2023-05-11T01:36:51.812Z,11.07
2023-05-11T01:38:28.871Z,11.10
2023-05-11T01:40:07.619Z,11.12
2023-05-11T01:41:41.985Z,11.09
2023-05-11T01:43:18.853Z,11.13
2023-05-11T01:44:55.084Z,11.12
2023-05-11T01:46:30.621Z,11.12
2023-05-11T01:48:09.699Z,11.13
2023-05-11T01:49:44.155Z,11.15
2023-05-11T01:51:16.537Z,11.09
2023-05-11T01:52:50.655Z,10.95
2023-05-11T01:54:24.404Z,10.88
2023-05-11T01:55:57.681Z,10.88
2023-05-11T01:57:31.700Z,10.82
2023-05-11T01:59:04.129Z,10.78
2023-05-11T02:00:36.617Z,10.74
2023-05-11T02:02:09.620Z,10.74
2023-05-11T02:03:43.122Z,10.74
2023-05-11T02:05:22.224Z,10.83
2023-05-11T02:06:56.982Z,10.80
2023-05-11T02:08:31.219Z,10.88
2023-05-11T02:10:03.693Z,10.94
2023-05-11T02:11:38.999Z,10.87
2023-05-11T02:13:10.973Z,10.81
2023-05-11T02:14:43.401Z,10.79
2023-05-11T02:16:18.182Z,10.76
2023-05-11T02:17:51.637Z,10.80
2023-05-11T02:19:23.951Z,10.84
2023-05-11T02:20:58.522Z,10.83
2023-05-11T02:22:32.233Z,10.82
2023-05-11T02:24:06.470Z,10.84
2023-05-11T02:25:40.634Z,10.86
2023-05-11T02:27:13.049Z,10.87
2023-05-11T02:28:44.806Z,10.88
2023-05-11T02:30:16.480Z,10.93
2023-05-11T02:31:52.854Z,10.93
2023-05-11T02:33:35.211Z,10.84
2023-05-11T02:35:12.941Z,10.78
2023-05-11T02:36:46.029Z,10.77
2023-05-11T02:38:18.661Z,10.76
2023-05-11T02:39:57.984Z,10.87
2023-05-11T02:41:31.397Z,10.95
2023-05-11T02:43:13.434Z,10.92
2023-05-11T02:45:12.079Z,10.94
2023-05-11T02:46:48.732Z,10.97
2023-05-11T02:48:25.210Z,10.96
2023-05-11T02:50:01.547Z,10.88
2023-05-11T02:51:37.692Z,10.91
2023-05-11T02:53:15.297Z,10.95
2023-05-11T02:54:51.866Z,10.87
2023-05-11T02:56:24.543Z,10.87
2023-05-11T02:57:58.348Z,10.86
2023-05-11T02:59:31.207Z,10.88
2023-05-11T03:01:06.606Z,10.89
2023-05-11T03:02:38.760Z,10.90
2023-05-11T03:04:11.274Z,10.91
2023-05-11T03:05:42.900Z,10.89
2023-05-11T03:07:14.729Z,10.89
2023-05-11T03:08:46.844Z,10.92
2023-05-11T03:10:19.084Z,10.92
2023-05-11T03:11:51.932Z,10.92
2023-05-11T03:13:25.968Z,10.98
2023-05-11T03:15:00.945Z,10.94
2023-05-11T03:16:35.015Z,10.98
2023-05-11T03:18:08.359Z,11.06
2023-05-11T03:19:42.127Z,11.07
2023-05-11T03:21:17.295Z,11.00
2023-05-11T03:22:49.838Z,10.96
2023-05-11T03:24:21.937Z,11.04
2023-05-11T03:25:54.963Z,11.01
2023-05-11T03:27:27.672Z,10.98
2023-05-11T03:29:01.029Z,10.98
2023-05-11T03:30:33.758Z,11.04
2023-05-11T03:32:05.763Z,11.06
2023-05-11T03:33:40.360Z,11.03
2023-05-11T03:35:13.153Z,11.04
2023-05-11T03:36:48.184Z,11.04
2023-05-11T03:38:23.992Z,11.06
2023-05-11T03:39:59.224Z,11.07
2023-05-11T03:41:34.707Z,11.07
2023-05-11T03:43:09.000Z,11.13
2023-05-11T03:44:42.572Z,11.11
2023-05-11T03:46:17.821Z,11.09
2023-05-11T03:47:51.349Z,11.01
2023-05-11T03:49:23.846Z,10.95
2023-05-11T03:50:56.176Z,10.89
2023-05-11T03:52:28.299Z,10.87
2023-05-11T03:54:00.225Z,10.92
2023-05-11T03:55:32.494Z,10.87
2023-05-11T03:57:04.219Z,10.89
2023-05-11T03:58:40.538Z,10.80
2023-05-11T04:00:13.035Z,10.83
2023-05-11T04:01:51.601Z,10.85
2023-05-11T04:03:23.416Z,10.91
2023-05-11T04:04:55.253Z,10.90
2023-05-11T04:06:26.896Z,10.89
2023-05-11T04:08:15.877Z,10.94
2023-05-11T04:09:47.492Z,10.97
2023-05-11T04:11:19.052Z,11.00
2023-05-11T04:12:50.680Z,11.00
2023-05-11T04:14:22.234Z,10.95
2023-05-11T04:15:54.487Z,10.86
2023-05-11T04:17:26.319Z,10.81
2023-05-11T04:18:58.327Z,10.78
2023-05-11T04:20:30.052Z,10.79
2023-05-11T04:22:01.746Z,10.72
2023-05-11T04:23:33.343Z,10.75
2023-05-11T04:25:05.359Z,10.79
2023-05-11T04:26:36.938Z,10.85
2023-05-11T04:28:08.520Z,10.86
2023-05-11T04:29:40.156Z,10.85
2023-05-11T04:31:11.776Z,10.86
2023-05-11T04:32:43.428Z,10.78
2023-05-11T04:34:15.037Z,10.77
2023-05-11T04:35:46.700Z,10.78
2023-05-11T04:37:18.930Z,10.83
2023-05-11T04:38:50.801Z,10.80
2023-05-11T04:40:22.817Z,10.77
2023-05-11T04:41:54.796Z,10.74
2023-05-11T04:43:26.419Z,10.84
2023-05-11T04:44:58.025Z,10.92
2023-05-11T04:46:30.513Z,10.92
2023-05-11T04:48:03.086Z,10.91
2023-05-11T04:49:35.083Z,10.87
2023-05-11T04:51:06.936Z,10.86
2023-05-11T04:52:43.648Z,10.84
2023-05-11T04:54:15.291Z,10.85
2023-05-11T04:55:46.970Z,10.87
2023-05-11T04:57:18.810Z,10.91
2023-05-11T04:58:51.790Z,10.92
2023-05-11T05:00:23.555Z,10.91
2023-05-11T05:01:55.250Z,10.96
2023-05-11T05:03:27.036Z,10.94
2023-05-11T05:05:00.715Z,10.95
2023-05-11T05:06:32.771Z,10.92
2023-05-11T05:08:04.398Z,10.98
2023-05-11T05:09:35.994Z,11.04
2023-05-11T05:11:07.590Z,11.02
2023-05-11T05:12:39.414Z,11.01
2023-05-11T05:14:11.276Z,10.96
2023-05-11T05:15:43.336Z,10.97
2023-05-11T05:17:14.962Z,10.99
2023-05-11T05:18:46.885Z,11.04
2023-05-11T05:20:19.736Z,10.98
2023-05-11T05:21:51.806Z,11.02
2023-05-11T05:23:23.469Z,11.06
2023-05-11T05:24:55.126Z,11.05
2023-05-11T05:26:26.779Z,11.02
2023-05-11T05:27:59.171Z,11.04
2023-05-11T05:29:31.312Z,11.12
2023-05-11T05:31:03.242Z,11.15
2023-05-11T05:32:34.963Z,11.22
2023-05-11T05:34:06.622Z,11.28
2023-05-11T05:35:38.473Z,11.20
2023-05-11T05:37:10.228Z,11.25
2023-05-11T05:38:41.804Z,11.23
2023-05-11T05:40:13.566Z,11.25
2023-05-11T05:41:50.606Z,11.32
2023-05-11T05:43:22.688Z,11.32
2023-05-11T05:44:54.452Z,11.27
2023-05-11T05:46:26.678Z,11.17
2023-05-11T05:48:00.440Z,11.31
2023-05-11T05:49:32.091Z,11.34
2023-05-11T05:51:03.908Z,11.33
2023-05-11T05:52:36.274Z,11.35
2023-05-11T05:54:08.268Z,11.38
2023-05-11T05:55:39.907Z,11.37
2023-05-11T05:57:12.792Z,11.35
2023-05-11T05:58:46.527Z,11.32
2023-05-11T06:00:19.081Z,11.40
2023-05-11T06:01:58.291Z,11.34
2023-05-11T06:03:31.383Z,11.40
2023-05-11T06:05:03.112Z,11.47
2023-05-11T06:06:35.931Z,11.48
2023-05-11T06:08:11.035Z,11.40
2023-05-11T06:09:44.042Z,11.39
2023-05-11T06:11:16.028Z,11.40
2023-05-11T06:12:47.628Z,11.44
2023-05-11T06:14:19.339Z,11.33
2023-05-11T06:15:51.416Z,11.37
2023-05-11T06:17:30.235Z,11.37
2023-05-11T06:19:02.099Z,11.35
2023-05-11T06:20:34.225Z,11.34
2023-05-11T06:22:07.040Z,11.40
2023-05-11T06:23:40.165Z,11.36
2023-05-11T06:25:12.670Z,11.37
2023-05-11T06:26:45.331Z,11.42
2023-05-11T06:28:18.529Z,11.38
2023-05-11T06:29:50.220Z,11.49
2023-05-11T06:31:23.212Z,11.62
2023-05-11T06:32:55.605Z,11.60
2023-05-11T06:34:27.801Z,11.65
2023-05-11T06:36:05.166Z,11.68
2023-05-11T06:37:37.431Z,11.74
2023-05-11T06:39:09.104Z,11.72
2023-05-11T06:40:42.904Z,11.76
2023-05-11T06:42:14.596Z,11.80
2023-05-11T06:43:46.398Z,11.81
2023-05-11T06:45:27.322Z,11.72
2023-05-11T06:47:01.368Z,11.69
2023-05-11T06:48:33.040Z,11.69
2023-05-11T06:50:05.501Z,11.82
2023-05-11T06:51:37.224Z,11.76
2023-05-11T06:53:10.711Z,11.77
2023-05-11T06:54:42.411Z,11.88
2023-05-11T06:56:18.044Z,11.85
2023-05-11T06:57:49.730Z,11.85
2023-05-11T06:59:21.359Z,11.87
2023-05-11T07:00:53.250Z,11.87
2023-05-11T07:02:24.989Z,11.90
2023-05-11T07:03:56.866Z,11.94
2023-05-11T07:05:28.749Z,12.00
2023-05-11T07:07:00.452Z,11.94
2023-05-11T07:08:33.810Z,11.90
2023-05-11T07:10:06.647Z,11.72
2023-05-11T07:11:38.584Z,11.51
2023-05-11T07:13:11.142Z,11.51
2023-05-11T07:14:42.901Z,11.58
2023-05-11T07:16:14.584Z,11.66
2023-05-11T07:17:49.877Z,11.83
2023-05-11T07:19:21.635Z,11.98
2023-05-11T07:20:53.295Z,11.98
2023-05-11T07:22:25.028Z,12.09
2023-05-11T07:23:56.793Z,12.03
2023-05-11T07:25:28.727Z,12.10
2023-05-11T07:27:02.063Z,11.95
2023-05-11T07:28:33.848Z,11.91
2023-05-11T07:30:06.271Z,12.02
2023-05-11T07:31:38.069Z,11.97
2023-05-11T07:33:10.144Z,11.99
2023-05-11T07:34:42.331Z,11.99
2023-05-11T07:36:14.493Z,11.97
2023-05-11T07:37:46.367Z,12.09
2023-05-11T07:39:18.120Z,11.96
2023-05-11T07:40:49.929Z,11.92
2023-05-11T07:42:21.702Z,11.93
2023-05-11T07:43:54.335Z,11.84
2023-05-11T07:45:26.029Z,11.88
2023-05-11T07:46:58.651Z,11.80
2023-05-11T07:48:30.943Z,11.69
2023-05-11T07:50:02.808Z,11.70
2023-05-11T07:51:35.040Z,11.50
2023-05-11T07:53:07.347Z,11.57
2023-05-11T07:54:40.301Z,11.68
2023-05-11T07:56:12.351Z,11.80
2023-05-11T07:57:43.954Z,11.84
2023-05-11T07:59:15.632Z,11.85
2023-05-11T08:00:47.291Z,11.89
2023-05-11T08:02:19.219Z,11.97
2023-05-11T08:03:51.179Z,11.86
2023-05-11T08:05:23.059Z,11.95
2023-05-11T08:06:54.771Z,12.10
2023-05-11T08:08:27.068Z,12.23
2023-05-11T08:09:58.652Z,12.32
2023-05-11T08:11:30.315Z,12.33
2023-05-11T08:13:02.005Z,12.20
2023-05-11T08:14:33.769Z,12.16
2023-05-11T08:16:06.733Z,12.26
2023-05-11T08:17:38.521Z,12.19
2023-05-11T08:19:10.229Z,12.27
2023-05-11T08:20:42.247Z,12.31
2023-05-11T08:22:14.439Z,12.28
2023-05-11T08:23:46.085Z,12.22
2023-05-11T08:25:17.981Z,11.98
2023-05-11T08:26:49.770Z,12.05
2023-05-11T08:28:22.144Z,11.99
2023-05-11T08:29:55.382Z,11.78
2023-05-11T08:31:27.208Z,11.89
2023-05-11T08:32:59.630Z,12.06
2023-05-11T08:34:31.447Z,12.17
2023-05-11T08:36:03.931Z,12.22
2023-05-11T08:37:35.586Z,12.13
2023-05-11T08:39:07.141Z,12.01
2023-05-11T08:40:40.817Z,11.96
2023-05-11T08:42:15.570Z,12.14
2023-05-11T08:43:48.828Z,12.17
2023-05-11T08:45:21.218Z,12.06
2023-05-11T08:47:08.599Z,11.85
2023-05-11T08:48:46.533Z,11.80
2023-05-11T08:50:18.369Z,11.89
2023-05-11T08:51:49.966Z,11.93
2023-05-11T08:53:23.005Z,11.89
2023-05-11T08:54:54.687Z,11.87
2023-05-11T08:56:27.794Z,11.95
2023-05-11T08:58:02.868Z,12.10
2023-05-11T08:59:34.971Z,12.30
2023-05-11T09:01:07.925Z,12.37
2023-05-11T09:02:40.448Z,12.30
2023-05-11T09:04:13.295Z,12.30
2023-05-11T09:05:48.881Z,12.06
2023-05-11T09:07:23.944Z,12.07
2023-05-11T09:08:55.670Z,12.16
2023-05-11T09:10:27.478Z,12.29
2023-05-11T09:11:59.625Z,12.15
2023-05-11T09:13:32.214Z,12.06
2023-05-11T09:15:04.257Z,12.06
2023-05-11T09:16:37.528Z,12.15
2023-05-11T09:18:09.581Z,12.25
2023-05-11T09:20:06.597Z,12.23
2023-05-11T09:21:38.662Z,12.16
2023-05-11T09:23:10.367Z,12.19
2023-05-11T09:24:42.682Z,12.21
2023-05-11T09:26:16.001Z,12.26
2023-05-11T09:27:47.982Z,12.23
2023-05-11T09:29:20.342Z,12.24
2023-05-11T09:30:52.567Z,12.40
2023-05-11T09:32:24.668Z,12.31
2023-05-11T09:34:16.266Z,12.31
2023-05-11T09:35:48.525Z,12.29
2023-05-11T09:37:21.200Z,12.34
2023-05-11T09:38:57.373Z,12.30
2023-05-11T09:40:34.281Z,12.22
2023-05-11T09:42:12.726Z,12.11
2023-05-11T09:43:44.510Z,12.06
2023-05-11T09:45:41.768Z,12.10
2023-05-11T09:47:17.457Z,12.09
2023-05-11T09:48:59.057Z,12.11
2023-05-11T09:50:35.286Z,12.10
2023-05-11T09:52:07.032Z,12.13
2023-05-11T09:53:45.351Z,12.16
2023-05-11T09:55:17.198Z,12.08
2023-05-11T09:56:58.394Z,11.98
2023-05-11T09:58:57.665Z,11.98
2023-05-11T10:00:29.513Z,12.04
2023-05-11T10:02:18.692Z,12.18
2023-05-11T10:04:00.173Z,12.15
2023-05-11T10:05:36.358Z,12.09
2023-05-11T10:07:07.996Z,12.10
2023-05-11T10:08:39.772Z,12.19
2023-05-11T10:10:11.763Z,12.32
2023-05-11T10:11:46.919Z,12.51
2023-05-11T10:13:18.861Z,12.48
2023-05-11T10:14:53.015Z,12.58
2023-05-11T10:16:24.821Z,12.61
2023-05-11T10:17:59.039Z,12.68
2023-05-11T10:19:32.154Z,12.71
2023-05-11T10:21:04.447Z,12.63
2023-05-11T10:22:37.015Z,12.76
2023-05-11T10:24:10.104Z,12.85
2023-05-11T10:25:42.562Z,13.01
2023-05-11T10:27:14.594Z,12.96
2023-05-11T10:28:46.360Z,12.78
2023-05-11T10:30:18.956Z,12.81
2023-05-11T10:31:52.450Z,12.70
2023-05-11T10:33:24.792Z,12.64
2023-05-11T10:34:56.987Z,12.55
2023-05-11T10:36:29.215Z,12.47
2023-05-11T10:38:01.070Z,12.42
2023-05-11T10:39:36.140Z,12.31
2023-05-11T10:41:32.297Z,12.19
2023-05-11T10:43:22.120Z,12.19
2023-05-11T10:45:16.549Z,12.24
2023-05-11T10:47:07.742Z,12.23
2023-05-11T10:48:48.858Z,12.33
2023-05-11T10:50:35.858Z,12.40
2023-05-11T10:52:16.699Z,12.33
2023-05-11T10:53:51.246Z,12.24
2023-05-11T10:55:31.696Z,12.28
2023-05-11T10:57:07.117Z,12.26
2023-05-11T10:58:47.586Z,12.40
2023-05-11T11:00:47.805Z,12.51
2023-05-11T11:02:20.256Z,12.53
2023-05-11T11:04:00.315Z,12.64
2023-05-11T11:05:38.137Z,12.77
2023-05-11T11:07:10.305Z,12.74
2023-05-11T11:09:05.361Z,12.88
2023-05-11T11:10:41.206Z,12.95
2023-05-11T11:12:13.285Z,12.94
2023-05-11T11:13:58.982Z,12.96
2023-05-11T11:15:55.674Z,12.93
2023-05-11T11:17:32.460Z,13.00
2023-05-11T11:19:31.992Z,13.12
2023-05-11T11:21:04.533Z,13.13
2023-05-11T11:22:39.100Z,13.22
2023-05-11T11:24:51.316Z,13.18
2023-05-11T11:26:47.925Z,12.86
2023-05-11T11:28:19.727Z,12.90
2023-05-11T11:30:30.891Z,13.09
2023-05-11T11:32:21.212Z,13.27
2023-05-11T11:33:53.067Z,13.31
2023-05-11T11:35:40.084Z,13.26
2023-05-11T11:37:13.472Z,13.31
2023-05-11T11:39:05.639Z,13.31
2023-05-11T11:40:47.126Z,13.10
2023-05-11T11:42:30.693Z,13.27
2023-05-11T11:44:04.241Z,13.34
2023-05-11T11:45:36.948Z,12.85
2023-05-11T11:47:14.449Z,12.96
2023-05-11T11:48:47.126Z,12.96
2023-05-11T11:50:20.118Z,12.86
2023-05-11T11:51:51.747Z,12.90
2023-05-11T11:53:38.517Z,13.09
2023-05-11T11:55:47.381Z,13.20
2023-05-11T11:57:34.032Z,13.35
2023-05-11T11:59:10.213Z,13.11
2023-05-11T12:00:42.180Z,13.23
2023-05-11T12:02:16.705Z,13.42
2023-05-11T12:03:58.907Z,13.48
2023-05-11T12:05:32.305Z,13.04
2023-05-11T12:07:09.084Z,13.00
2023-05-11T12:08:42.970Z,13.02
2023-05-11T12:10:17.591Z,12.94
2023-05-11T12:11:49.683Z,12.91
2023-05-11T12:13:21.996Z,12.89
2023-05-11T12:14:53.650Z,12.81
2023-05-11T12:16:25.402Z,12.85
2023-05-11T12:17:57.424Z,12.96
2023-05-11T12:19:29.089Z,13.00
2023-05-11T12:21:00.809Z,13.08
2023-05-11T12:22:32.496Z,13.00
2023-05-11T12:24:05.581Z,13.21
2023-05-11T12:25:37.403Z,13.29
2023-05-11T12:27:09.557Z,13.08
2023-05-11T12:28:41.322Z,13.32
2023-05-11T12:30:24.014Z,13.40
2023-05-11T12:31:56.360Z,13.43
2023-05-11T12:33:28.265Z,13.53
2023-05-11T12:35:04.499Z,13.85
2023-05-11T12:36:36.688Z,13.74
2023-05-11T12:38:11.506Z,13.50
2023-05-11T12:39:43.559Z,13.26
2023-05-11T12:41:22.824Z,13.26
2023-05-11T12:42:55.876Z,13.38
2023-05-11T12:44:27.685Z,13.40
2023-05-11T12:45:59.500Z,13.40
2023-05-11T12:47:32.051Z,13.67
2023-05-11T12:49:04.600Z,13.81
2023-05-11T12:50:46.413Z,13.77
2023-05-11T12:52:18.084Z,13.96
2023-05-11T12:53:49.748Z,13.71
2023-05-11T12:55:30.759Z,13.86
2023-05-11T12:57:02.921Z,13.94
2023-05-11T12:58:39.803Z,13.97
2023-05-11T13:00:19.440Z,13.59
2023-05-11T13:01:52.997Z,13.73
2023-05-11T13:03:27.522Z,13.56
2023-05-11T13:04:59.561Z,13.48
2023-05-11T13:06:32.844Z,13.40
2023-05-11T13:08:05.718Z,13.51
2023-05-11T13:09:37.971Z,13.80
2023-05-11T13:11:24.784Z,13.69
2023-05-11T13:12:56.880Z,13.75
2023-05-11T13:14:31.406Z,13.95
2023-05-11T13:16:05.730Z,14.23
2023-05-11T13:17:39.380Z,13.98
2023-05-11T13:19:12.411Z,14.07
2023-05-11T13:20:45.086Z,14.24
2023-05-11T13:22:16.788Z,14.19
2023-05-11T13:23:51.891Z,14.30
2023-05-11T13:25:23.689Z,14.07
2023-05-11T13:26:58.323Z,13.91
2023-05-11T13:28:30.011Z,13.93
2023-05-11T13:30:01.707Z,13.94
2023-05-11T13:31:33.415Z,13.89
2023-05-11T13:33:05.564Z,13.72
2023-05-11T13:34:37.445Z,13.96
2023-05-11T13:36:09.333Z,14.15
2023-05-11T13:37:41.364Z,14.34
2023-05-11T13:39:13.103Z,14.63
2023-05-11T13:40:44.805Z,14.66
2023-05-11T13:42:16.468Z,14.49
2023-05-11T13:43:50.528Z,14.62
2023-05-11T13:45:22.187Z,14.77
2023-05-11T13:46:53.963Z,14.62
2023-05-11T13:48:25.551Z,14.69
2023-05-11T13:49:57.369Z,14.62
2023-05-11T13:51:29.096Z,14.42
2023-05-11T13:53:00.735Z,14.54
2023-05-11T13:54:32.314Z,14.14
2023-05-11T13:56:04.858Z,14.08
2023-05-11T13:57:36.885Z,14.22
2023-05-11T13:59:08.536Z,14.33
2023-05-11T14:00:40.358Z,14.25
2023-05-11T14:02:12.427Z,14.24
2023-05-11T14:03:44.249Z,14.21
2023-05-11T14:05:17.241Z,13.89
2023-05-11T14:06:48.938Z,14.00
2023-05-11T14:08:20.639Z,14.00
2023-05-11T14:09:52.317Z,13.63
2023-05-11T14:11:24.039Z,13.53
2023-05-11T14:12:55.810Z,13.75
2023-05-11T14:14:27.533Z,13.89
2023-05-11T14:15:59.456Z,13.74
2023-05-11T14:17:33.002Z,13.70
2023-05-11T14:19:05.156Z,13.93
2023-05-11T14:20:43.395Z,13.99
2023-05-11T14:22:15.002Z,14.17
2023-05-11T14:24:02.128Z,14.34
2023-05-11T14:25:38.225Z,14.42
2023-05-11T14:27:10.462Z,14.26
2023-05-11T14:28:42.288Z,14.12
2023-05-11T14:30:14.466Z,14.01
2023-05-11T14:31:46.437Z,14.12
2023-05-11T14:33:18.004Z,14.02
2023-05-11T14:34:49.658Z,13.98
2023-05-11T14:36:21.378Z,14.24
2023-05-11T14:37:54.564Z,13.98
2023-05-11T14:39:26.257Z,14.14
2023-05-11T14:41:00.051Z,14.15
2023-05-11T14:42:32.495Z,14.04
2023-05-11T14:44:04.264Z,14.35
2023-05-11T14:45:35.977Z,14.42
2023-05-11T14:47:08.595Z,14.50
2023-05-11T14:48:40.494Z,14.47
2023-05-11T14:50:12.138Z,14.53
2023-05-11T14:51:43.924Z,14.72
2023-05-11T14:53:16.116Z,14.97
2023-05-11T14:54:47.931Z,14.60
2023-05-11T14:56:20.159Z,14.76
2023-05-11T14:57:53.116Z,14.84
2023-05-11T14:59:24.857Z,14.89
2023-05-11T15:00:56.568Z,14.81
2023-05-11T15:02:29.106Z,14.85
2023-05-11T15:04:00.845Z,14.75
2023-05-11T15:05:32.456Z,14.79
2023-05-11T15:07:04.078Z,14.74
2023-05-11T15:08:35.793Z,14.95
2023-05-11T15:10:07.895Z,14.96
2023-05-11T15:11:39.747Z,15.01
2023-05-11T15:13:11.802Z,15.07
2023-05-11T15:14:43.456Z,15.16
2023-05-11T15:16:15.245Z,14.95
2023-05-11T15:17:47.030Z,15.04
2023-05-11T15:19:18.786Z,14.96
2023-05-11T15:20:50.618Z,14.77
2023-05-11T15:22:22.733Z,14.93
2023-05-11T15:23:54.476Z,15.20
2023-05-11T15:25:26.229Z,15.01
2023-05-11T15:26:58.040Z,14.96
2023-05-11T15:28:29.733Z,15.09
2023-05-11T15:30:04.523Z,14.96
2023-05-11T15:31:36.659Z,14.93
2023-05-11T15:33:10.122Z,14.85
2023-05-11T15:34:55.542Z,15.09
2023-05-11T15:36:30.674Z,15.02
2023-05-11T15:38:03.636Z,14.80
2023-05-11T15:39:35.589Z,15.06
2023-05-11T15:41:07.925Z,14.89
2023-05-11T15:42:40.792Z,14.90
2023-05-11T15:44:13.338Z,15.08
2023-05-11T15:45:45.782Z,15.17
2023-05-11T15:47:17.779Z,15.10
2023-05-11T15:48:49.488Z,14.88
2023-05-11T15:50:21.698Z,14.78
2023-05-11T15:51:53.617Z,14.71
2023-05-11T15:53:25.608Z,14.71
2023-05-11T15:54:57.362Z,14.90
2023-05-11T15:56:28.968Z,14.74
2023-05-11T15:58:00.754Z,14.61
2023-05-11T15:59:35.039Z,14.32
2023-05-11T16:01:06.869Z,14.57
2023-05-11T16:02:38.646Z,14.54
2023-05-11T16:04:10.498Z,14.51
2023-05-11T16:05:42.257Z,14.58
2023-05-11T16:07:14.027Z,14.50
2023-05-11T16:08:45.782Z,14.58
2023-05-11T16:10:17.545Z,14.56
2023-05-11T16:11:49.805Z,14.53
2023-05-11T16:13:21.493Z,14.68
2023-05-11T16:14:53.205Z,14.60
2023-05-11T16:16:25.080Z,14.54
2023-05-11T16:17:58.515Z,14.59
2023-05-11T16:19:30.275Z,14.31
2023-05-11T16:21:04.159Z,14.30
2023-05-11T16:22:37.256Z,14.18
2023-05-11T16:24:09.085Z,14.25
2023-05-11T16:25:40.706Z,14.13
2023-05-11T16:27:12.477Z,14.17
2023-05-11T16:28:44.415Z,14.22
2023-05-11T16:30:24.479Z,14.37
2023-05-11T16:31:57.366Z,14.40
2023-05-11T16:33:29.130Z,14.44
2023-05-11T16:35:00.866Z,14.50
2023-05-11T16:36:33.513Z,14.51
2023-05-11T16:38:06.177Z,14.56
2023-05-11T16:39:37.987Z,14.51
2023-05-11T16:41:09.723Z,14.44
2023-05-11T16:42:41.623Z,14.47
2023-05-11T16:44:13.322Z,14.41
2023-05-11T16:45:45.164Z,14.41
2023-05-11T16:47:17.468Z,14.43
2023-05-11T16:48:49.212Z,14.36
2023-05-11T16:50:21.137Z,14.36
2023-05-11T16:51:53.166Z,14.32
2023-05-11T16:53:27.215Z,14.41
2023-05-11T16:54:59.261Z,14.40
2023-05-11T16:56:31.098Z,14.22
2023-05-11T16:58:04.028Z,14.13
2023-05-11T16:59:35.865Z,14.23
2023-05-11T17:01:08.381Z,14.10
2023-05-11T17:02:40.954Z,14.17
2023-05-11T17:04:13.321Z,14.10
2023-05-11T17:05:45.848Z,14.03
2023-05-11T17:07:17.578Z,14.14
2023-05-11T17:08:49.793Z,14.22
2023-05-11T17:10:21.738Z,14.07
2023-05-11T17:11:54.915Z,14.20
2023-05-11T17:13:26.916Z,14.15
2023-05-11T17:15:00.865Z,14.15
2023-05-11T17:16:33.055Z,14.25
2023-05-11T17:18:04.982Z,14.10
2023-05-11T17:19:36.726Z,13.94
2023-05-11T17:21:08.652Z,13.95
2023-05-11T17:22:40.306Z,13.92
2023-05-11T17:24:12.075Z,14.02
2023-05-11T17:25:44.420Z,14.01
2023-05-11T17:27:16.409Z,13.92
2023-05-11T17:28:48.126Z,13.85
2023-05-11T17:30:20.955Z,13.89
2023-05-11T17:31:54.001Z,13.97
2023-05-11T17:33:26.142Z,13.88
2023-05-11T17:34:58.524Z,13.69
2023-05-11T17:36:31.649Z,13.83
2023-05-11T17:38:05.525Z,13.80
2023-05-11T17:39:37.253Z,13.74
2023-05-11T17:41:10.040Z,13.69
2023-05-11T17:42:41.868Z,13.61
2023-05-11T17:44:13.675Z,13.55
2023-05-11T17:45:45.523Z,13.53
2023-05-11T17:47:17.556Z,13.55
2023-05-11T17:48:49.480Z,13.53
2023-05-11T17:50:23.440Z,13.65
2023-05-11T17:51:55.282Z,13.64
2023-05-11T17:53:27.248Z,13.59
2023-05-11T17:54:59.113Z,13.49
2023-05-11T17:56:31.564Z,13.42
2023-05-11T17:58:03.367Z,13.45
2023-05-11T17:59:35.710Z,13.51
2023-05-11T18:01:13.843Z,13.44
2023-05-11T18:02:48.935Z,13.41
2023-05-11T18:04:21.228Z,13.34
2023-05-11T18:05:53.188Z,13.29
2023-05-11T18:07:26.367Z,13.27
2023-05-11T18:08:59.603Z,13.25
2023-05-11T18:10:31.609Z,13.25
2023-05-11T18:12:04.556Z,13.17
2023-05-11T18:13:36.445Z,13.16
2023-05-11T18:15:09.028Z,13.15
2023-05-11T18:16:40.763Z,13.11
2023-05-11T18:18:12.607Z,13.02
2023-05-11T18:19:44.615Z,13.06
2023-05-11T18:21:16.507Z,12.98
2023-05-11T18:22:48.248Z,13.05
2023-05-11T18:24:20.033Z,12.96
2023-05-11T18:25:51.973Z,12.90
2023-05-11T18:27:24.313Z,12.93
2023-05-11T18:28:57.541Z,12.91
2023-05-11T18:30:31.010Z,12.87
2023-05-11T18:32:03.053Z,12.82
2023-05-11T18:33:34.870Z,12.77
2023-05-11T18:35:06.937Z,12.79
2023-05-11T18:36:39.627Z,12.79
2023-05-11T18:38:11.374Z,12.80
2023-05-11T18:39:43.785Z,12.76
2023-05-11T18:41:16.562Z,12.63
2023-05-11T18:42:48.469Z,12.68
2023-05-11T18:44:20.374Z,12.61
2023-05-11T18:45:52.893Z,12.59
2023-05-11T18:47:24.697Z,12.62
2023-05-11T18:48:56.721Z,12.49
2023-05-11T18:50:29.763Z,12.39
2023-05-11T18:52:01.758Z,12.29
2023-05-11T18:53:33.655Z,12.25
2023-05-11T18:55:05.744Z,12.24
2023-05-11T18:56:37.717Z,12.21
2023-05-11T18:58:09.642Z,12.29
2023-05-11T18:59:41.354Z,12.26
2023-05-11T19:01:13.130Z,12.19
2023-05-11T19:02:48.145Z,12.15
2023-05-11T19:04:22.002Z,12.11
2023-05-11T19:05:53.776Z,12.00
2023-05-11T19:07:26.443Z,11.95
2023-05-11T19:08:58.549Z,11.97
2023-05-11T19:10:31.602Z,11.85
2023-05-11T19:12:03.795Z,11.77
2023-05-11T19:13:35.582Z,11.79
2023-05-11T19:15:08.663Z,11.82
2023-05-11T19:16:40.674Z,11.72
2023-05-11T19:18:12.855Z,11.69
2023-05-11T19:19:44.641Z,11.77
2023-05-11T19:21:17.415Z,11.75
2023-05-11T19:22:49.620Z,11.73
2023-05-11T19:24:21.584Z,11.64
2023-05-11T19:25:53.387Z,11.63
2023-05-11T19:27:25.265Z,11.68
2023-05-11T19:28:58.049Z,11.63
2023-05-11T19:30:31.192Z,11.59
2023-05-11T19:32:03.756Z,11.55
2023-05-11T19:33:36.188Z,11.58
2023-05-11T19:35:08.963Z,11.54
2023-05-11T19:36:40.896Z,11.57
2023-05-11T19:38:12.673Z,11.59
2023-05-11T19:39:44.676Z,11.62
2023-05-11T19:41:17.592Z,11.56
2023-05-11T19:42:49.427Z,11.58
2023-05-11T19:44:21.295Z,11.50
2023-05-11T19:45:53.194Z,11.35
2023-05-11T19:47:25.274Z,11.32
2023-05-11T19:48:57.676Z,11.34
2023-05-11T19:50:29.386Z,11.34
2023-05-11T19:52:01.216Z,11.38
2023-05-11T19:53:33.301Z,11.36
2023-05-11T19:55:06.116Z,11.28
2023-05-11T19:56:39.576Z,11.34
2023-05-11T19:58:11.831Z,11.34
2023-05-11T19:59:45.575Z,11.34
2023-05-11T20:01:19.034Z,11.27
2023-05-11T20:02:53.306Z,11.23
2023-05-11T20:04:28.441Z,11.27
2023-05-11T20:06:01.017Z,11.31
2023-05-11T20:07:34.944Z,11.32
2023-05-11T20:09:07.842Z,11.31